Time;durP1;ratioP1;P1;durP2;ratioP2;P2;SDS_P1;SDS_P2;PMS_P1;PMS_P2;Temp;Humidity;BMP_temperature;BMP_pressure;BME280_temperature;BME280_humidity;BME280_pressure;Samples;Min_cycle;Max_cycle;Signal;HPM_P1;HPM_P2
2022/10/05 00:02:18;;;;;;;0.40;0.40;;;11.00;99.90;;;;;;5060497;28;20432;-70
2022/10/05 00:05:19;;;;;;;0.60;0.60;;;10.90;99.90;;;;;;5063743;28;20432;-70
2022/10/05 00:08:14;;;;;;;0.40;0.40;;;12.90;99.90;;;;;;5060406;28;20839;-70
2022/10/05 00:11:02;;;;;;;0.40;0.40;;;10.90;99.90;;;;;;5059801;28;20421;-71
2022/10/05 00:13:51;;;;;;;0.40;0.40;;;10.90;99.90;;;;;;5060371;28;20602;-70
2022/10/05 00:16:39;;;;;;;0.40;0.40;;;10.90;99.90;;;;;;5059783;28;20453;-70
2022/10/05 00:19:30;;;;;;;0.40;0.40;;;10.90;99.90;;;;;;5061484;28;20863;-70
2022/10/05 00:22:21;;;;;;;0.47;0.47;;;10.90;99.90;;;;;;5061354;28;20936;-68
2022/10/05 00:25:12;;;;;;;0.50;0.50;;;10.90;99.90;;;;;;5061587;28;20499;-70
2022/10/05 00:28:01;;;;;;;0.93;0.93;;;10.90;99.90;;;;;;5076695;28;20985;-69
2022/10/05 00:30:50;;;;;;;0.50;0.50;;;10.90;99.90;;;;;;5076934;28;20419;-70
2022/10/05 00:33:38;;;;;;;0.80;0.80;;;10.90;99.90;;;;;;5077824;28;20428;-69
2022/10/05 00:36:26;;;;;;;0.40;0.40;;;10.90;99.90;;;;;;5074407;28;20802;-69
2022/10/05 00:39:14;;;;;;;0.50;0.50;;;10.90;99.90;;;;;;5071301;28;21036;-69
2022/10/05 00:42:34;;;;;;;0.90;0.90;;;10.90;99.90;;;;;;5072528;28;20427;-69
2022/10/05 00:45:27;;;;;;;0.40;0.40;;;10.90;99.90;;;;;;5076576;28;20427;-69
2022/10/05 00:48:28;;;;;;;0.40;0.40;;;10.90;99.90;;;;;;5076478;28;20546;-71
2022/10/05 00:51:24;;;;;;;0.40;0.40;;;10.90;99.90;;;;;;5076031;28;20435;-68
2022/10/05 00:54:26;;;;;;;0.40;0.40;;;10.90;99.90;;;;;;5076575;28;20423;-69
2022/10/05 00:57:26;;;;;;;0.40;0.40;;;10.90;99.90;;;;;;5076250;28;21022;-72
2022/10/05 01:00:18;;;;;;;0.40;0.40;;;10.90;99.90;;;;;;5075333;28;20538;-69
2022/10/05 01:03:12;;;;;;;0.40;0.40;;;11.00;99.90;;;;;;5075573;28;20528;-70
2022/10/05 01:06:12;;;;;;;0.40;0.40;;;11.00;99.90;;;;;;5075978;28;20419;-70
2022/10/05 01:09:10;;;;;;;0.40;0.40;;;11.10;99.90;;;;;;5075403;28;20443;-70
2022/10/05 01:12:06;;;;;;;0.40;0.40;;;11.10;99.90;;;;;;5075515;28;20427;-69
2022/10/05 01:15:02;;;;;;;0.30;0.30;;;12.40;99.90;;;;;;5059460;28;20428;-69
2022/10/05 01:17:55;;;;;;;0.50;0.50;;;11.10;99.90;;;;;;5053329;28;20589;-70
2022/10/05 01:20:53;;;;;;;0.40;0.40;;;11.10;99.90;;;;;;5065839;28;20525;-69
2022/10/05 01:24:17;;;;;;;0.40;0.40;;;11.20;99.90;;;;;;5055212;28;20503;-69
2022/10/05 01:27:21;;;;;;;0.40;0.40;;;11.10;99.90;;;;;;5055824;28;20956;-69
2022/10/05 01:30:13;;;;;;;0.40;0.40;;;11.10;99.90;;;;;;5054626;28;20508;-70
2022/10/05 01:33:09;;;;;;;0.40;0.40;;;11.00;99.90;;;;;;5055151;28;20456;-71
2022/10/05 01:36:06;;;;;;;0.40;0.40;;;11.00;99.90;;;;;;5054900;28;20431;-68
2022/10/05 01:39:04;;;;;;;0.40;0.40;;;10.90;99.90;;;;;;5055119;28;20535;-69
2022/10/05 01:41:59;;;;;;;0.40;0.40;;;10.90;99.90;;;;;;5054965;28;20435;-69
2022/10/05 01:44:54;;;;;;;0.40;0.40;;;10.90;99.90;;;;;;5054565;28;20848;-69
2022/10/05 01:47:46;;;;;;;0.60;0.60;;;10.90;99.90;;;;;;5054811;28;20485;-69
2022/10/05 01:50:47;;;;;;;0.50;0.50;;;10.90;99.90;;;;;;5054020;28;20448;-69
2022/10/05 01:53:46;;;;;;;0.40;0.40;;;10.90;99.90;;;;;;5054570;28;20420;-69
2022/10/05 01:56:41;;;;;;;1.43;1.43;;;10.80;99.90;;;;;;5055229;28;20958;-69
2022/10/05 01:59:43;;;;;;;0.40;0.40;;;10.80;99.90;;;;;;5053954;28;20435;-69
2022/10/05 02:02:35;;;;;;;0.40;0.40;;;10.70;99.90;;;;;;5054718;28;20427;-69
2022/10/05 02:05:29;;;;;;;0.40;0.40;;;10.70;99.90;;;;;;5055340;28;20432;-69
2022/10/05 02:08:23;;;;;;;0.40;0.40;;;10.70;99.90;;;;;;5055724;28;20531;-69
2022/10/05 02:11:13;;;;;;;0.40;0.40;;;10.70;99.90;;;;;;5053703;28;20462;-69
2022/10/05 02:14:07;;;;;;;0.40;0.40;;;10.70;99.90;;;;;;5053845;28;20420;-69
2022/10/05 02:16:58;;;;;;;0.40;0.40;;;10.60;99.90;;;;;;5054618;28;20511;-69
2022/10/05 02:19:51;;;;;;;0.40;0.40;;;10.60;99.90;;;;;;5053079;28;20517;-69
2022/10/05 02:22:45;;;;;;;0.40;0.40;;;10.60;99.90;;;;;;5054127;28;20434;-69
2022/10/05 02:25:37;;;;;;;0.40;0.40;;;10.50;99.90;;;;;;5053836;28;20420;-69
2022/10/05 02:28:31;;;;;;;0.40;0.40;;;10.50;99.90;;;;;;5054186;28;20444;-69
2022/10/05 02:31:23;;;;;;;0.40;0.40;;;10.50;99.90;;;;;;5053462;28;20987;-69
2022/10/05 02:34:26;;;;;;;0.40;0.40;;;10.50;99.90;;;;;;5053682;28;20424;-69
2022/10/05 02:37:24;;;;;;;0.40;0.40;;;10.40;99.90;;;;;;5052996;28;20471;-69
2022/10/05 02:40:23;;;;;;;0.40;0.40;;;10.40;99.90;;;;;;5052188;28;20463;-69
2022/10/05 02:43:22;;;;;;;0.40;0.40;;;10.40;99.90;;;;;;5070258;28;20489;-71
2022/10/05 02:46:19;;;;;;;0.40;0.40;;;10.40;99.90;;;;;;5073052;28;20416;-71
2022/10/05 02:49:18;;;;;;;0.40;0.40;;;10.40;99.90;;;;;;5055820;28;20424;-69
2022/10/05 02:52:11;;;;;;;0.40;0.40;;;10.40;99.90;;;;;;5052976;28;20539;-70
2022/10/05 02:55:08;;;;;;;0.40;0.40;;;10.50;99.90;;;;;;5053548;28;20516;-69
2022/10/05 02:58:01;;;;;;;0.40;0.40;;;10.50;99.90;;;;;;5052333;28;20523;-69
2022/10/05 03:00:55;;;;;;;0.40;0.40;;;10.50;99.90;;;;;;5052682;28;20542;-69
2022/10/05 03:03:51;;;;;;;0.40;0.40;;;10.50;99.90;;;;;;5053187;28;20427;-69
2022/10/05 03:06:48;;;;;;;0.40;0.40;;;10.60;99.90;;;;;;5051425;28;21037;-71
2022/10/05 03:09:41;;;;;;;0.40;0.40;;;10.60;99.90;;;;;;5052579;28;20432;-69
2022/10/05 03:12:49;;;;;;;0.40;0.40;;;10.60;99.90;;;;;;5052165;28;20511;-69
2022/10/05 03:16:02;;;;;;;0.40;0.40;;;10.70;99.90;;;;;;5051895;28;20439;-69
2022/10/05 03:19:04;;;;;;;0.40;0.40;;;10.70;99.90;;;;;;5051146;28;20462;-69
2022/10/05 03:21:58;;;;;;;0.40;0.40;;;10.70;99.90;;;;;;5063446;28;20546;-69
2022/10/05 03:25:00;;;;;;;0.40;0.40;;;10.70;99.90;;;;;;5056706;28;20908;-69
2022/10/05 03:27:55;;;;;;;0.40;0.40;;;10.90;99.90;;;;;;5058699;28;20455;-71
2022/10/05 03:30:51;;;;;;;0.40;0.40;;;10.90;99.90;;;;;;5052875;28;20512;-69
2022/10/05 03:33:46;;;;;;;0.40;0.40;;;11.10;99.90;;;;;;5053008;28;20415;-69
2022/10/05 03:36:43;;;;;;;0.40;0.40;;;10.90;99.90;;;;;;5052732;28;20766;-69
2022/10/05 03:39:38;;;;;;;0.40;0.40;;;10.90;99.90;;;;;;5052403;28;20523;-69
2022/10/05 03:42:35;;;;;;;0.40;0.40;;;10.90;99.90;;;;;;5052856;28;20482;-71
2022/10/05 03:45:30;;;;;;;0.40;0.40;;;10.90;99.90;;;;;;5053388;28;20447;-69
2022/10/05 03:48:25;;;;;;;0.40;0.40;;;11.00;99.90;;;;;;5052523;28;20586;-69
2022/10/05 03:51:21;;;;;;;0.40;0.40;;;11.00;99.90;;;;;;5052432;28;20503;-71
2022/10/05 03:54:19;;;;;;;0.40;0.40;;;11.00;99.90;;;;;;5053196;28;20416;-70
2022/10/05 03:57:11;;;;;;;0.40;0.40;;;11.10;99.90;;;;;;5052572;28;20468;-69
2022/10/05 04:00:03;;;;;;;0.40;0.40;;;11.10;99.90;;;;;;5051915;28;20447;-69
2022/10/05 04:02:57;;;;;;;0.40;0.40;;;11.10;99.90;;;;;;5052219;28;20465;-69
2022/10/05 04:05:50;;;;;;;0.40;0.40;;;11.10;99.90;;;;;;5052351;28;20420;-69
2022/10/05 04:08:44;;;;;;;0.40;0.40;;;11.10;99.90;;;;;;5052771;28;20509;-69
2022/10/05 04:11:40;;;;;;;0.40;0.40;;;11.00;99.90;;;;;;5051569;28;20499;-69
2022/10/05 04:14:34;;;;;;;0.40;0.40;;;11.00;99.90;;;;;;5053079;28;20485;-70
2022/10/05 04:17:31;;;;;;;0.40;0.40;;;10.90;99.90;;;;;;5051363;28;20959;-69
2022/10/05 04:20:24;;;;;;;0.40;0.40;;;10.90;99.90;;;;;;5052096;28;20952;-69
2022/10/05 04:23:22;;;;;;;0.40;0.40;;;10.90;99.90;;;;;;5052800;28;20992;-69
2022/10/05 04:26:13;;;;;;;0.40;0.40;;;10.90;99.90;;;;;;5051870;28;20430;-69
2022/10/05 04:29:10;;;;;;;0.40;0.40;;;10.90;99.90;;;;;;5050813;28;20959;-69
2022/10/05 04:32:19;;;;;;;0.40;0.40;;;11.00;99.90;;;;;;5051584;28;20515;-69
2022/10/05 04:35:37;;;;;;;0.40;0.40;;;11.00;99.90;;;;;;5051744;28;20514;-69
2022/10/05 04:38:43;;;;;;;0.40;0.40;;;11.00;99.90;;;;;;5051635;28;20482;-69
2022/10/05 04:41:48;;;;;;;0.40;0.40;;;11.10;99.90;;;;;;5051557;28;20814;-69
2022/10/05 04:45:02;;;;;;;0.40;0.40;;;11.10;99.90;;;;;;5052124;28;20416;-69
2022/10/05 04:48:05;;;;;;;0.40;0.40;;;11.10;99.90;;;;;;5050444;28;20598;-68
2022/10/05 04:51:07;;;;;;;0.40;0.40;;;11.20;99.90;;;;;;5051390;28;20436;-68
2022/10/05 04:54:04;;;;;;;0.40;0.40;;;11.20;99.90;;;;;;5052314;28;20806;-68
2022/10/05 04:56:58;;;;;;;0.40;0.40;;;11.10;99.90;;;;;;5050485;28;20460;-68
2022/10/05 05:00:01;;;;;;;0.40;0.40;;;11.10;99.90;;;;;;5051687;28;20524;-68
2022/10/05 05:03:13;;;;;;;0.40;0.40;;;11.10;99.90;;;;;;5052384;28;20467;-69
2022/10/05 05:06:08;;;;;;;0.40;0.40;;;11.10;99.90;;;;;;5051833;28;20424;-68
2022/10/05 05:09:21;;;;;;;0.40;0.40;;;11.10;99.90;;;;;;5052093;28;20698;-69
2022/10/05 05:12:23;;;;;;;0.40;0.40;;;11.10;99.90;;;;;;5051914;28;20784;-69
2022/10/05 05:15:30;;;;;;;0.40;0.40;;;11.10;99.90;;;;;;5051364;28;20435;-69
2022/10/05 05:18:48;;;;;;;0.40;0.40;;;11.10;99.90;;;;;;5051179;28;20577;-69
2022/10/05 05:21:46;;;;;;;0.40;0.40;;;11.10;99.90;;;;;;5051627;28;20559;-68
2022/10/05 05:24:46;;;;;;;0.40;0.40;;;11.10;99.90;;;;;;5051949;28;20497;-68
2022/10/05 05:27:42;;;;;;;0.40;0.40;;;11.10;99.90;;;;;;5062324;28;20443;-70
2022/10/05 05:30:38;;;;;;;0.40;0.40;;;11.10;99.90;;;;;;5075574;28;20431;-68
2022/10/05 05:33:38;;;;;;;0.40;0.40;;;11.00;99.90;;;;;;5075857;28;20426;-70
2022/10/05 05:36:46;;;;;;;0.40;0.40;;;11.10;99.90;;;;;;5075937;28;20431;-69
2022/10/05 05:39:45;;;;;;;0.40;0.40;;;11.10;99.90;;;;;;5059756;28;20464;-68
2022/10/05 05:42:42;;;;;;;0.40;0.40;;;11.20;99.90;;;;;;5061378;28;20455;-69
2022/10/05 05:45:39;;;;;;;0.40;0.40;;;11.20;99.90;;;;;;5053355;28;20956;-68
2022/10/05 05:48:32;;;;;;;0.40;0.40;;;11.20;99.90;;;;;;5069301;28;20493;-69
2022/10/05 05:51:26;;;;;;;0.40;0.40;;;11.30;99.90;;;;;;5075608;28;20431;-70
2022/10/05 05:54:24;;;;;;;0.40;0.40;;;11.30;99.90;;;;;;5074796;28;21042;-68
2022/10/05 05:57:17;;;;;;;0.40;0.40;;;11.40;99.90;;;;;;5054510;28;20454;-68
2022/10/05 06:00:27;;;;;;;0.40;0.40;;;11.40;99.90;;;;;;5053790;28;20515;-69
2022/10/05 06:03:21;;;;;;;0.40;0.40;;;11.40;99.90;;;;;;5056167;28;21102;-69
2022/10/05 06:06:11;;;;;;;0.40;0.40;;;11.40;99.90;;;;;;5071536;28;20427;-69
2022/10/05 06:09:02;;;;;;;0.40;0.40;;;11.50;99.90;;;;;;5073805;28;20847;-69
2022/10/05 06:11:53;;;;;;;0.40;0.40;;;11.60;99.90;;;;;;5069371;28;20425;-69
2022/10/05 06:14:48;;;;;;;0.40;0.40;;;11.70;99.90;;;;;;5061452;28;20423;-69
2022/10/05 06:17:41;;;;;;;0.40;0.40;;;11.80;99.90;;;;;;5075117;28;20455;-71
2022/10/05 06:20:35;;;;;;;0.40;0.40;;;12.00;99.90;;;;;;5074378;28;20431;-71
2022/10/05 06:23:28;;;;;;;0.40;0.40;;;12.10;99.90;;;;;;5054059;28;20550;-71
2022/10/05 06:26:56;;;;;;;0.40;0.40;;;12.10;99.90;;;;;;5053749;28;20577;-71
2022/10/05 06:29:58;;;;;;;0.40;0.40;;;12.30;99.90;;;;;;5031209;28;20514;-71
2022/10/05 06:33:04;;;;;;;0.40;0.40;;;12.30;99.90;;;;;;5080587;28;20500;-71
2022/10/05 06:36:04;;;;;;;0.40;0.40;;;12.40;99.90;;;;;;5087871;28;20480;-70
2022/10/05 06:39:19;;;;;;;0.40;0.40;;;12.30;99.90;;;;;;5088907;28;20455;-67
2022/10/05 06:42:18;;;;;;;0.40;0.40;;;12.40;99.90;;;;;;5081611;28;20550;-71
2022/10/05 06:45:17;;;;;;;1.23;0.87;;;12.50;99.90;;;;;;5079289;28;20430;-69
2022/10/05 06:48:16;;;;;;;1.10;1.10;;;12.50;99.90;;;;;;5080916;28;20443;-71
2022/10/05 06:51:15;;;;;;;0.40;0.40;;;12.70;99.90;;;;;;5078406;28;20431;-69
2022/10/05 06:54:11;;;;;;;0.40;0.40;;;12.70;99.90;;;;;;5080489;28;20423;-70
2022/10/05 06:57:08;;;;;;;0.40;0.40;;;12.80;99.90;;;;;;5080534;28;20562;-71
2022/10/05 07:00:00;;;;;;;0.40;0.40;;;12.80;99.90;;;;;;5060477;28;20986;-71
2022/10/05 07:02:55;;;;;;;0.40;0.40;;;12.80;99.90;;;;;;5074785;28;20509;-71
2022/10/05 07:05:53;;;;;;;0.40;0.40;;;12.90;99.90;;;;;;5067964;28;20424;-71
2022/10/05 07:09:08;;;;;;;0.40;0.40;;;13.00;99.90;;;;;;5075877;28;20479;-71
2022/10/05 07:12:12;;;;;;;0.40;0.40;;;13.00;99.90;;;;;;5064775;28;20451;-71
2022/10/05 07:15:17;;;;;;;0.40;0.40;;;13.00;99.90;;;;;;5062599;28;20498;-72
2022/10/05 07:18:25;;;;;;;0.40;0.40;;;13.00;99.90;;;;;;5065419;28;20455;-70
2022/10/05 07:21:23;;;;;;;0.40;0.40;;;13.00;99.90;;;;;;5054421;28;20452;-71
2022/10/05 07:24:28;;;;;;;0.40;0.40;;;13.00;99.90;;;;;;5053594;28;20593;-71
2022/10/05 07:27:19;;;;;;;0.40;0.40;;;13.00;99.90;;;;;;5053617;28;20447;-72
2022/10/05 07:30:10;;;;;;;0.40;0.40;;;13.10;99.90;;;;;;5058697;28;20426;-72
2022/10/05 07:33:08;;;;;;;0.40;0.40;;;13.20;99.90;;;;;;5062448;28;20428;-71
2022/10/05 07:39:18;;;;;;;0.40;0.40;;;13.50;99.90;;;;;;5061817;28;21331;-71
2022/10/05 07:42:18;;;;;;;0.40;0.40;;;13.70;99.90;;;;;;5061037;28;20430;-73
2022/10/05 07:45:14;;;;;;;0.70;0.70;;;13.80;99.90;;;;;;5064093;28;20508;-71
2022/10/05 07:48:11;;;;;;;0.40;0.40;;;13.90;99.90;;;;;;5070161;28;20530;-71
2022/10/05 07:51:05;;;;;;;0.40;0.40;;;14.00;99.90;;;;;;5072619;28;20435;-73
2022/10/05 07:54:01;;;;;;;0.40;0.40;;;14.10;99.90;;;;;;5072437;28;20415;-72
2022/10/05 07:56:55;;;;;;;0.40;0.40;;;14.40;99.90;;;;;;5072327;28;20481;-71
2022/10/05 07:59:48;;;;;;;0.40;0.40;;;14.60;99.90;;;;;;5052503;28;20440;-71
2022/10/05 08:02:44;;;;;;;0.40;0.40;;;14.60;99.90;;;;;;5053450;28;21040;-71
2022/10/05 08:05:34;;;;;;;0.40;0.40;;;14.70;99.90;;;;;;5055203;28;20523;-71
2022/10/05 08:08:35;;;;;;;0.50;0.50;;;14.80;99.90;;;;;;5052441;28;20976;-71
2022/10/05 08:11:30;;;;;;;0.40;0.40;;;14.70;99.90;;;;;;5059487;28;20515;-68
2022/10/05 08:14:24;;;;;;;0.40;0.40;;;14.60;99.90;;;;;;5067430;28;20952;-72
2022/10/05 08:17:20;;;;;;;0.40;0.40;;;14.50;99.90;;;;;;5070573;28;20542;-71
2022/10/05 08:20:31;;;;;;;0.50;0.50;;;14.50;99.90;;;;;;5071517;28;20518;-71
2022/10/05 08:23:25;;;;;;;0.40;0.40;;;14.70;99.90;;;;;;5072565;28;20471;-71
2022/10/05 08:26:23;;;;;;;0.40;0.40;;;14.80;99.90;;;;;;5064378;28;20522;-72
2022/10/05 08:29:16;;;;;;;0.40;0.40;;;15.00;99.90;;;;;;5062573;28;20285;-69
2022/10/05 08:32:12;;;;;;;0.40;0.40;;;15.20;99.90;;;;;;5061200;28;20955;-73
2022/10/05 08:35:11;;;;;;;0.40;0.40;;;15.50;99.90;;;;;;5063261;28;20459;-71
2022/10/05 08:38:00;;;;;;;0.40;0.40;;;15.70;99.90;;;;;;5056547;28;20448;-72
2022/10/05 08:41:13;;;;;;;0.40;0.40;;;15.70;99.90;;;;;;5053832;28;20427;-70
2022/10/05 08:44:42;;;;;;;0.50;0.40;;;15.70;99.90;;;;;;5052716;28;20498;-73
2022/10/05 08:47:53;;;;;;;0.50;0.50;;;15.90;99.90;;;;;;5052443;28;20816;-70
2022/10/05 08:51:07;;;;;;;0.40;0.40;;;15.90;99.90;;;;;;5059391;28;20424;-72
2022/10/05 08:54:21;;;;;;;0.40;0.40;;;16.10;99.90;;;;;;5062788;28;20423;-72
2022/10/05 08:57:43;;;;;;;0.40;0.40;;;16.30;99.90;;;;;;5054006;28;20709;-72
2022/10/05 09:00:45;;;;;;;1.05;0.90;;;16.40;99.90;;;;;;5054316;28;20204;-72
2022/10/05 09:03:50;;;;;;;0.50;0.50;;;16.60;99.90;;;;;;5071889;28;20322;-72
2022/10/05 09:07:14;;;;;;;0.40;0.40;;;16.80;99.90;;;;;;5065559;28;20747;-71
2022/10/05 09:10:41;;;;;;;0.40;0.40;;;16.90;99.90;;;;;;5074910;28;20273;-72
2022/10/05 09:13:42;;;;;;;0.40;0.40;;;16.90;99.90;;;;;;5018270;28;20228;-72
2022/10/05 09:17:02;;;;;;;0.40;0.30;;;17.10;99.90;;;;;;5077079;28;20207;-76
2022/10/05 09:20:09;;;;;;;0.40;0.40;;;17.10;99.90;;;;;;5070856;28;20695;-72
2022/10/05 09:23:04;;;;;;;0.40;0.40;;;17.00;99.90;;;;;;5075331;28;20650;-72
2022/10/05 09:25:59;;;;;;;0.98;0.98;;;16.90;99.90;;;;;;5077623;28;20266;-73
2022/10/05 09:29:04;;;;;;;0.40;0.40;;;16.60;99.90;;;;;;5075707;28;20282;-73
2022/10/05 09:32:07;;;;;;;0.40;0.40;;;16.40;99.90;;;;;;5077545;28;20212;-72
2022/10/05 09:35:20;;;;;;;0.97;0.53;;;16.20;99.90;;;;;;5077222;28;20207;-72
2022/10/05 09:38:19;;;;;;;0.40;0.40;;;16.00;99.90;;;;;;5077340;28;20350;-72
2022/10/05 09:41:49;;;;;;;0.68;0.45;;;16.00;99.90;;;;;;5075172;28;20847;-71
2022/10/05 09:45:06;;;;;;;0.40;0.40;;;16.20;99.90;;;;;;4993485;28;20706;-72
2022/10/05 09:48:22;;;;;;;0.40;0.40;;;16.30;99.90;;;;;;5073802;28;20224;-72
2022/10/05 09:51:47;;;;;;;0.40;0.40;;;16.50;99.90;;;;;;5075065;28;20685;-72
2022/10/05 09:55:07;;;;;;;0.40;0.40;;;16.70;99.90;;;;;;5075174;28;20279;-71
2022/10/05 09:58:27;;;;;;;0.52;0.52;;;16.80;99.90;;;;;;5060861;28;20224;-72
2022/10/05 10:01:33;;;;;;;0.40;0.40;;;16.90;99.90;;;;;;5075398;28;20207;-72
2022/10/05 10:04:42;;;;;;;0.40;0.40;;;17.00;99.90;;;;;;5056989;28;20775;-72
2022/10/05 10:07:49;;;;;;;0.40;0.40;;;17.20;99.90;;;;;;5055330;28;20228;-70
2022/10/05 10:11:01;;;;;;;0.80;0.80;;;17.30;99.90;;;;;;5056488;28;20201;-72
2022/10/05 10:14:05;;;;;;;0.40;0.40;;;17.60;99.90;;;;;;5055686;28;20197;-72
2022/10/05 10:17:10;;;;;;;0.40;0.40;;;17.90;99.90;;;;;;5054048;28;20292;-72
2022/10/05 10:20:21;;;;;;;0.40;0.40;;;17.90;99.90;;;;;;5065308;28;20287;-72
2022/10/05 10:23:28;;;;;;;0.40;0.40;;;18.00;99.90;;;;;;5056740;28;20204;-72
2022/10/05 10:26:46;;;;;;;0.40;0.40;;;18.20;99.90;;;;;;5062243;28;20196;-72
2022/10/05 10:29:50;;;;;;;0.60;0.60;;;18.50;99.90;;;;;;5065145;28;20284;-72
2022/10/05 10:33:17;;;;;;;0.40;0.40;;;18.60;99.90;;;;;;5071688;28;20207;-72
2022/10/05 10:36:13;;;;;;;0.40;0.40;;;18.70;99.90;;;;;;5067077;28;20227;-70
2022/10/05 10:39:06;;;;;;;0.40;0.40;;;18.60;99.90;;;;;;5071225;28;20299;-70
2022/10/05 10:42:10;;;;;;;0.40;0.40;;;18.70;99.90;;;;;;5065351;28;20229;-71
2022/10/05 10:45:19;;;;;;;0.40;0.40;;;18.50;99.90;;;;;;5064808;28;20343;-72
2022/10/05 10:48:10;;;;;;;0.40;0.40;;;18.40;99.90;;;;;;5063295;28;20299;-72
2022/10/05 10:51:17;;;;;;;0.40;0.40;;;18.40;99.90;;;;;;5067553;28;20299;-72
2022/10/05 10:54:28;;;;;;;0.40;0.40;;;18.30;99.90;;;;;;5063933;28;20219;-72
2022/10/05 10:57:24;;;;;;;0.40;0.40;;;18.40;99.90;;;;;;5064631;28;20597;-71
2022/10/05 11:00:40;;;;;;;0.40;0.40;;;18.50;99.90;;;;;;5065556;28;20663;-71
2022/10/05 11:03:58;;;;;;;0.40;0.40;;;18.70;99.90;;;;;;5068351;28;20259;-71
2022/10/05 11:07:26;;;;;;;0.40;0.40;;;18.80;99.90;;;;;;5062654;28;20197;-70
2022/10/05 11:10:43;;;;;;;0.50;0.40;;;18.90;99.90;;;;;;5023548;28;20827;-72
2022/10/05 11:13:51;;;;;;;0.40;0.40;;;18.90;99.90;;;;;;5055907;28;20291;-72
2022/10/05 11:17:06;;;;;;;0.55;0.55;;;18.90;99.90;;;;;;5055890;28;20302;-71
2022/10/05 11:20:17;;;;;;;0.43;0.43;;;19.10;99.90;;;;;;5055608;28;20216;-72
2022/10/05 11:23:33;;;;;;;0.50;0.50;;;19.30;99.90;;;;;;5055522;28;20205;-72
2022/10/05 11:26:45;;;;;;;0.40;0.40;;;19.70;99.90;;;;;;5060135;28;20582;-72
2022/10/05 11:30:01;;;;;;;0.80;0.73;;;20.00;99.90;;;;;;5067239;28;20201;-72
2022/10/05 11:33:35;;;;;;;0.40;0.40;;;20.30;99.90;;;;;;5063319;28;20221;-72
2022/10/05 11:37:11;;;;;;;0.40;0.40;;;20.40;99.90;;;;;;5062667;28;20197;-72
2022/10/05 11:40:33;;;;;;;0.40;0.40;;;20.20;99.90;;;;;;5070210;28;20275;-71
2022/10/05 11:43:57;;;;;;;0.40;0.40;;;19.90;99.90;;;;;;5072902;28;20224;-72
2022/10/05 11:46:54;;;;;;;0.40;0.40;;;19.50;99.90;;;;;;5069323;28;20607;-71
2022/10/05 11:49:48;;;;;;;0.50;0.50;;;19.50;99.90;;;;;;5065156;28;20203;-74
2022/10/05 11:52:43;;;;;;;0.40;0.40;;;19.30;99.90;;;;;;5065918;28;20240;-71
2022/10/05 11:55:37;;;;;;;0.40;0.40;;;19.20;99.90;;;;;;5065611;28;20190;-72
2022/10/05 11:58:31;;;;;;;0.40;0.40;;;18.90;99.90;;;;;;5067067;28;20795;-72
2022/10/05 12:01:26;;;;;;;0.40;0.40;;;18.60;99.90;;;;;;5063258;28;20221;-71
2022/10/05 12:04:19;;;;;;;0.40;0.40;;;18.50;99.90;;;;;;5059093;28;20208;-72
2022/10/05 12:07:20;;;;;;;0.40;0.40;;;18.40;99.90;;;;;;5064217;28;20711;-71
2022/10/05 12:10:23;;;;;;;0.40;0.40;;;18.40;99.90;;;;;;5063928;28;20582;-71
2022/10/05 12:13:21;;;;;;;0.40;0.40;;;18.50;99.90;;;;;;5064348;28;20243;-72
2022/10/05 12:16:17;;;;;;;0.40;0.40;;;18.60;99.90;;;;;;5071553;28;20204;-72
2022/10/05 12:19:12;;;;;;;0.40;0.40;;;18.70;99.90;;;;;;5092970;22;20231;-75
2022/10/05 12:22:05;;;;;;;0.40;0.40;;;18.70;99.90;;;;;;5091930;28;20225;-76
2022/10/05 12:25:17;;;;;;;0.40;0.40;;;18.70;99.90;;;;;;5091050;28;20204;-78
2022/10/05 12:28:11;;;;;;;0.60;0.60;;;18.90;99.90;;;;;;5082796;28;20224;-75
2022/10/05 12:31:11;;;;;;;0.40;0.40;;;18.80;99.90;;;;;;5077230;28;20763;-75
2022/10/05 12:34:07;;;;;;;0.40;0.40;;;18.90;99.90;;;;;;5075630;28;20202;-74
2022/10/05 12:36:58;;;;;;;0.50;0.50;;;18.90;99.90;;;;;;5052714;28;20221;-78
2022/10/05 12:39:58;;;;;;;0.40;0.40;;;19.00;99.90;;;;;;5051283;28;20671;-77
2022/10/05 12:42:54;;;;;;;0.40;0.40;;;19.10;99.90;;;;;;5051144;28;20208;-77
2022/10/05 12:45:54;;;;;;;0.40;0.40;;;19.10;99.90;;;;;;5052375;28;20213;-81
2022/10/05 12:49:04;;;;;;;0.40;0.40;;;19.20;99.90;;;;;;5051135;28;20263;-78
2022/10/05 12:51:57;;;;;;;0.40;0.40;;;19.30;99.90;;;;;;5052122;28;20328;-76
2022/10/05 12:54:51;;;;;;;0.75;0.75;;;19.30;99.90;;;;;;5052933;28;20577;-75
2022/10/05 12:57:49;;;;;;;0.40;0.40;;;19.30;99.90;;;;;;5056691;28;20572;-78
2022/10/05 13:00:47;;;;;;;0.63;0.63;;;19.30;99.90;;;;;;5071001;28;20211;-74
2022/10/05 13:03:39;;;;;;;0.77;0.77;;;19.30;99.90;;;;;;5070545;28;20204;-76
2022/10/05 13:06:37;;;;;;;0.40;0.40;;;19.30;99.90;;;;;;5071226;28;20227;-75
2022/10/05 13:09:32;;;;;;;0.40;0.40;;;19.40;99.90;;;;;;5070670;28;20224;-76
2022/10/05 13:12:34;;;;;;;0.40;0.40;;;19.40;99.90;;;;;;5071828;28;20192;-77
2022/10/05 13:15:29;;;;;;;0.40;0.40;;;19.50;99.90;;;;;;5069438;28;20200;-78
2022/10/05 13:18:27;;;;;;;0.40;0.40;;;19.70;99.90;;;;;;5069288;28;20226;-76
2022/10/05 13:21:19;;;;;;;0.40;0.40;;;19.70;99.90;;;;;;5068955;28;20712;-78
2022/10/05 13:24:17;;;;;;;0.40;0.40;;;19.90;99.90;;;;;;5070529;28;20619;-75
2022/10/05 13:27:13;;;;;;;0.40;0.40;;;20.10;99.90;;;;;;5069668;28;20255;-77
2022/10/05 13:30:04;;;;;;;0.40;0.40;;;20.20;99.90;;;;;;5072277;28;20231;-76
2022/10/05 13:32:57;;;;;;;0.45;0.45;;;20.80;99.90;;;;;;5071293;28;20197;-77
2022/10/05 13:35:52;;;;;;;0.40;0.40;;;22.20;99.90;;;;;;5073278;28;20280;-75
2022/10/05 13:38:53;;;;;;;0.40;0.40;;;22.90;99.90;;;;;;5073047;28;20248;-76
2022/10/05 13:41:50;;;;;;;2.67;2.58;;;22.90;99.90;;;;;;5072546;28;20209;-77
2022/10/05 13:44:49;;;;;;;0.43;0.43;;;22.60;99.90;;;;;;5073347;28;20547;-75
2022/10/05 13:47:47;;;;;;;0.40;0.40;;;22.20;99.90;;;;;;5073052;28;20200;-76
2022/10/05 13:50:42;;;;;;;0.73;0.73;;;21.70;99.90;;;;;;5074889;28;20279;-76
2022/10/05 13:53:39;;;;;;;0.65;0.60;;;21.40;99.90;;;;;;5078075;28;20197;-76
2022/10/05 13:56:30;;;;;;;0.63;0.63;;;21.30;99.90;;;;;;5075924;28;20189;-75
2022/10/05 13:59:27;;;;;;;0.45;0.45;;;21.20;99.90;;;;;;5077112;28;20693;-75
2022/10/05 14:02:20;;;;;;;0.40;0.40;;;21.10;99.90;;;;;;5076375;28;20197;-74
2022/10/05 14:05:16;;;;;;;0.40;0.40;;;21.00;99.90;;;;;;5075569;28;20203;-75
2022/10/05 14:08:17;;;;;;;0.40;0.40;;;21.00;99.90;;;;;;5074676;28;20280;-76
2022/10/05 14:11:21;;;;;;;1.05;0.60;;;21.50;99.90;;;;;;5076606;28;20663;-74
2022/10/05 14:14:15;;;;;;;0.40;0.40;;;22.90;99.90;;;;;;5074263;28;20335;-74
2022/10/05 14:17:15;;;;;;;0.88;0.88;;;24.00;99.90;;;;;;5074994;28;20224;-72
2022/10/05 14:20:17;;;;;;;0.40;0.40;;;25.00;99.90;;;;;;5074731;28;20311;-74
2022/10/05 14:23:13;;;;;;;0.40;0.40;;;26.00;99.90;;;;;;5072949;28;20196;-75
2022/10/05 14:26:18;;;;;;;0.40;0.40;;;26.90;99.90;;;;;;5073067;28;20299;-73
2022/10/05 14:29:17;;;;;;;0.40;0.40;;;28.00;99.90;;;;;;5072685;28;20217;-73
2022/10/05 14:32:14;;;;;;;0.40;0.40;;;28.30;99.90;;;;;;5071693;28;20569;-74
2022/10/05 14:35:14;;;;;;;1.25;1.25;;;27.20;99.90;;;;;;5073152;28;20236;-74
2022/10/05 14:38:18;;;;;;;0.40;0.40;;;26.10;99.90;;;;;;5073796;28;20205;-75
2022/10/05 14:41:15;;;;;;;0.50;0.50;;;25.30;99.90;;;;;;5075429;28;20228;-77
2022/10/05 14:44:26;;;;;;;0.50;0.50;;;24.70;99.90;;;;;;5073910;28;20577;-75
2022/10/05 14:47:22;;;;;;;0.40;0.40;;;24.20;99.90;;;;;;5074562;28;20236;-76
2022/10/05 14:50:16;;;;;;;0.60;0.40;;;23.70;99.90;;;;;;5073421;28;20811;-73
2022/10/05 14:53:15;;;;;;;0.40;0.40;;;23.30;99.90;;;;;;5073561;28;20277;-73
2022/10/05 14:56:17;;;;;;;0.40;0.40;;;22.90;99.90;;;;;;5073994;28;20204;-76
2022/10/05 14:59:26;;;;;;;0.40;0.40;;;22.50;99.90;;;;;;5074897;28;20230;-73
2022/10/05 15:02:51;;;;;;;0.55;0.55;;;22.00;99.90;;;;;;5074783;28;20279;-74
2022/10/05 15:05:44;;;;;;;0.40;0.40;;;21.30;99.90;;;;;;5073301;28;20232;-73
2022/10/05 15:08:44;;;;;;;0.40;0.40;;;20.80;99.90;;;;;;5073419;28;20212;-74
2022/10/05 15:11:41;;;;;;;0.68;0.68;;;20.40;99.90;;;;;;5072118;28;20232;-75
2022/10/05 15:14:31;;;;;;;0.40;0.40;;;20.10;99.90;;;;;;5073280;28;20201;-75
2022/10/05 15:17:25;;;;;;;0.40;0.40;;;19.80;99.90;;;;;;5072464;28;20243;-74
2022/10/05 15:20:23;;;;;;;0.40;0.40;;;19.60;99.90;;;;;;5072127;28;20224;-74
2022/10/05 15:23:23;;;;;;;0.40;0.40;;;19.50;99.90;;;;;;5073843;28;20582;-76
2022/10/05 15:26:35;;;;;;;0.80;0.80;;;19.30;99.90;;;;;;5075470;28;20221;-75
2022/10/05 15:29:42;;;;;;;0.45;0.45;;;19.20;99.90;;;;;;5053077;28;20224;-71
2022/10/05 15:32:57;;;;;;;0.50;0.50;;;19.10;99.90;;;;;;5054423;28;20692;-76
2022/10/05 15:35:55;;;;;;;0.40;0.40;;;19.00;99.90;;;;;;5052417;28;20201;-72
2022/10/05 15:38:58;;;;;;;0.50;0.50;;;18.80;99.90;;;;;;5053396;28;20710;-75
2022/10/05 15:41:59;;;;;;;0.50;0.50;;;18.70;99.90;;;;;;5062193;28;20206;-73
2022/10/05 15:44:57;;;;;;;0.63;0.50;;;18.60;99.90;;;;;;5074492;28;20623;-75